Time;durP1;ratioP1;P1;durP2;ratioP2;P2;SDS_P1;SDS_P2;PMS_P1;PMS_P2;Temp;Humidity;BMP_temperature;BMP_pressure;BME280_temperature;BME280_humidity;BME280_pressure;Samples;Min_cycle;Max_cycle;Signal;HPM_P1;HPM_P2
2020/12/29 00:00:30;;;;;;;41.92;23.13;;;-8.10;88.70;;;;;;4994807;28;20041;-79
2020/12/29 00:02:55;;;;;;;40.33;22.20;;;-8.10;88.70;;;;;;4993871;28;20018;-78
2020/12/29 00:05:21;;;;;;;39.38;22.40;;;-8.10;88.70;;;;;;4994318;28;20026;-80
2020/12/29 00:07:53;;;;;;;38.38;24.00;;;-8.10;88.70;;;;;;4994090;28;20403;-81
2020/12/29 00:10:25;;;;;;;42.97;23.10;;;-8.10;88.70;;;;;;4994600;28;20030;-79
2020/12/29 00:12:51;;;;;;;42.05;24.08;;;-8.10;88.70;;;;;;5006958;28;20022;-79
2020/12/29 00:15:18;;;;;;;31.63;17.02;;;-8.10;88.80;;;;;;4995529;28;20105;-79
2020/12/29 00:17:43;;;;;;;37.40;19.93;;;-8.10;88.70;;;;;;4994332;28;20026;-79
2020/12/29 00:20:10;;;;;;;43.35;23.38;;;-8.10;88.70;;;;;;4992022;28;20496;-80
2020/12/29 00:22:36;;;;;;;43.45;23.00;;;-8.10;88.70;;;;;;4994279;28;20476;-78
2020/12/29 00:25:03;;;;;;;40.08;23.85;;;-8.10;88.70;;;;;;4994051;28;20018;-79
2020/12/29 00:27:29;;;;;;;37.78;20.90;;;-8.20;88.70;;;;;;4992594;28;20058;-81
2020/12/29 00:29:54;;;;;;;45.15;24.48;;;-8.20;88.80;;;;;;4993988;28;20085;-80
2020/12/29 00:32:20;;;;;;;40.05;21.15;;;-8.20;88.70;;;;;;4993971;28;20102;-80
2020/12/29 00:34:47;;;;;;;49.25;23.33;;;-8.20;88.90;;;;;;4992504;28;20034;-80
2020/12/29 00:37:14;;;;;;;49.78;21.17;;;-8.20;88.90;;;;;;4993994;28;20022;-79
2020/12/29 00:39:40;;;;;;;37.05;20.05;;;-8.20;88.90;;;;;;4990083;28;20046;-79
2020/12/29 00:42:06;;;;;;;37.40;20.58;;;-8.20;88.90;;;;;;4993952;28;20021;-78
2020/12/29 00:44:32;;;;;;;39.08;21.38;;;-8.20;88.90;;;;;;4993559;28;20394;-79
2020/12/29 00:46:58;;;;;;;37.55;20.30;;;-8.20;88.90;;;;;;4993620;28;20383;-78
2020/12/29 00:49:24;;;;;;;39.97;21.48;;;-8.20;88.90;;;;;;4993438;28;20057;-77
2020/12/29 00:51:51;;;;;;;38.35;23.85;;;-8.20;89.00;;;;;;4993374;28;20403;-78
2020/12/29 00:54:17;;;;;;;37.72;21.73;;;-8.10;89.10;;;;;;4993289;28;20050;-79
2020/12/29 00:56:43;;;;;;;34.58;21.90;;;-8.10;89.20;;;;;;4993611;28;20054;-78
2020/12/29 00:59:08;;;;;;;40.35;21.75;;;-8.00;89.20;;;;;;4994334;28;20083;-78
2020/12/29 01:01:34;;;;;;;36.72;19.90;;;-8.00;89.80;;;;;;4993630;28;20058;-78
2020/12/29 01:04:00;;;;;;;34.33;20.25;;;-7.90;89.30;;;;;;4993499;28;20545;-79
2020/12/29 01:06:29;;;;;;;31.75;19.65;;;-7.80;89.20;;;;;;4993241;28;20114;-78
2020/12/29 01:08:55;;;;;;;36.58;21.33;;;-7.60;89.10;;;;;;4993351;28;20126;-79
2020/12/29 01:11:21;;;;;;;32.33;19.48;;;-7.60;88.90;;;;;;5010354;28;20394;-80
2020/12/29 01:13:47;;;;;;;41.83;21.55;;;-7.40;88.80;;;;;;5002843;28;20116;-78
2020/12/29 01:16:16;;;;;;;33.90;20.23;;;-7.30;88.50;;;;;;5012721;28;20101;-79
2020/12/29 01:18:42;;;;;;;37.22;20.52;;;-7.20;88.20;;;;;;5012648;28;20049;-80
2020/12/29 01:21:11;;;;;;;33.47;18.70;;;-7.10;87.80;;;;;;5013566;28;20390;-80
2020/12/29 01:23:37;;;;;;;33.25;19.83;;;-7.10;87.30;;;;;;5012979;28;20104;-80
2020/12/29 01:26:04;;;;;;;34.83;20.98;;;-7.10;87.20;;;;;;5012875;28;20022;-78
2020/12/29 01:28:30;;;;;;;38.65;20.20;;;-7.00;87.10;;;;;;5012719;28;20040;-80
2020/12/29 01:30:56;;;;;;;29.77;18.27;;;-7.10;86.80;;;;;;5013111;28;20034;-79
2020/12/29 01:33:21;;;;;;;35.33;18.83;;;-7.10;86.80;;;;;;5012941;28;20040;-78
2020/12/29 01:35:47;;;;;;;32.50;20.38;;;-7.10;86.70;;;;;;5012781;28;20029;-78
2020/12/29 01:38:13;;;;;;;30.90;17.38;;;-7.10;86.90;;;;;;5012559;28;20481;-80
2020/12/29 01:40:39;;;;;;;36.85;17.85;;;-7.10;87.00;;;;;;5013088;28;20038;-79
2020/12/29 01:43:04;;;;;;;38.30;18.40;;;-7.00;86.90;;;;;;5002683;28;20165;-79
2020/12/29 01:45:30;;;;;;;34.75;16.75;;;-7.00;86.80;;;;;;5011064;28;20030;-79
2020/12/29 01:47:57;;;;;;;32.05;18.02;;;-7.00;86.60;;;;;;5013000;28;20026;-79
2020/12/29 01:50:24;;;;;;;32.17;19.20;;;-7.00;86.70;;;;;;5012858;28;20365;-79
2020/12/29 01:53:01;;;;;;;31.40;16.77;;;-7.00;86.90;;;;;;5012774;28;20026;-79
2020/12/29 01:55:28;;;;;;;32.63;17.20;;;-6.90;86.90;;;;;;5003918;28;20022;-80
2020/12/29 01:57:55;;;;;;;33.67;16.65;;;-7.00;86.70;;;;;;5005256;28;20027;-79
2020/12/29 02:00:23;;;;;;;32.92;17.73;;;-7.00;87.20;;;;;;5006695;28;20048;-79
2020/12/29 02:02:49;;;;;;;35.05;20.65;;;-7.00;86.70;;;;;;5011953;28;20402;-79
2020/12/29 02:05:15;;;;;;;23.20;14.52;;;-7.10;86.70;;;;;;5013299;28;20113;-80
2020/12/29 02:07:42;;;;;;;32.65;17.63;;;-7.10;86.80;;;;;;5012380;28;20137;-79
2020/12/29 02:10:08;;;;;;;30.77;18.77;;;-7.10;86.90;;;;;;5013419;28;20113;-78
2020/12/29 02:12:36;;;;;;;29.92;17.85;;;-7.10;87.00;;;;;;5013692;28;20108;-79
2020/12/29 02:15:05;;;;;;;33.00;16.67;;;-7.20;87.10;;;;;;5013170;28;20024;-79
2020/12/29 02:17:31;;;;;;;28.33;17.13;;;-7.20;87.20;;;;;;5013725;28;20422;-79
2020/12/29 02:19:57;;;;;;;29.75;17.73;;;-7.20;87.20;;;;;;5012131;28;20108;-79
2020/12/29 02:22:26;;;;;;;32.08;16.90;;;-7.20;87.30;;;;;;5012256;28;20029;-79
2020/12/29 02:24:54;;;;;;;26.88;18.27;;;-7.20;87.50;;;;;;5012107;28;20026;-78
2020/12/29 02:27:22;;;;;;;27.58;17.02;;;-7.20;87.50;;;;;;5014466;28;20028;-78
2020/12/29 02:29:48;;;;;;;30.95;17.27;;;-7.20;87.60;;;;;;5016093;28;20076;-79
2020/12/29 02:32:15;;;;;;;29.25;16.30;;;-7.30;87.70;;;;;;5016471;28;20057;-78
2020/12/29 02:34:41;;;;;;;33.95;16.50;;;-7.20;87.90;;;;;;5015551;28;20486;-78
2020/12/29 02:37:09;;;;;;;34.58;19.00;;;-7.20;87.90;;;;;;5014281;28;20018;-79
2020/12/29 02:39:40;;;;;;;23.98;14.45;;;-7.30;88.00;;;;;;5015497;28;20045;-79
2020/12/29 02:42:06;;;;;;;33.70;16.95;;;-7.30;88.10;;;;;;5015566;28;20045;-79
2020/12/29 02:44:32;;;;;;;28.08;15.60;;;-7.20;88.20;;;;;;5014565;28;20022;-79
2020/12/29 02:46:58;;;;;;;28.77;17.38;;;-7.20;88.30;;;;;;5015604;28;20022;-79
2020/12/29 02:49:24;;;;;;;26.95;15.52;;;-7.20;88.40;;;;;;5015656;28;20087;-79
2020/12/29 02:51:50;;;;;;;28.08;16.55;;;-7.10;88.50;;;;;;5012931;28;20467;-78
2020/12/29 02:54:16;;;;;;;26.27;16.20;;;-7.10;88.70;;;;;;5006528;28;20030;-79
2020/12/29 02:56:43;;;;;;;32.67;15.52;;;-7.10;88.60;;;;;;5015225;28;20022;-78
2020/12/29 02:59:12;;;;;;;25.50;14.88;;;-7.00;88.70;;;;;;5015007;28;20036;-78
2020/12/29 03:01:38;;;;;;;22.88;14.60;;;-7.10;88.70;;;;;;5015496;28;20097;-79
2020/12/29 03:04:04;;;;;;;29.88;14.85;;;-7.00;88.70;;;;;;5014905;28;20108;-80
2020/12/29 03:06:29;;;;;;;29.27;13.77;;;-7.00;88.90;;;;;;5013723;28;20022;-76
2020/12/29 03:08:55;;;;;;;20.85;13.52;;;-7.00;88.90;;;;;;5015038;28;20539;-79
2020/12/29 03:11:28;;;;;;;25.02;13.45;;;-6.90;88.90;;;;;;5015131;28;20033;-78
2020/12/29 03:14:06;;;;;;;20.80;13.25;;;-6.90;88.90;;;;;;5013570;28;20022;-79
2020/12/29 03:16:32;;;;;;;22.58;14.02;;;-6.80;89.00;;;;;;5014874;28;20021;-77
2020/12/29 03:18:58;;;;;;;23.35;13.27;;;-6.80;88.90;;;;;;5014646;28;20042;-77
2020/12/29 03:21:24;;;;;;;20.83;12.55;;;-6.80;88.90;;;;;;5015211;28;20026;-79
2020/12/29 03:23:50;;;;;;;23.70;12.35;;;-6.70;88.90;;;;;;5014873;28;20387;-77
2020/12/29 03:26:19;;;;;;;23.13;11.73;;;-6.70;88.90;;;;;;5014654;28;20072;-78
2020/12/29 03:28:45;;;;;;;22.67;13.43;;;-6.70;88.80;;;;;;5014625;28;20030;-79
2020/12/29 03:31:12;;;;;;;22.58;14.07;;;-6.70;88.80;;;;;;5014519;28;20029;-79
2020/12/29 03:33:38;;;;;;;20.63;12.27;;;-6.70;88.90;;;;;;5014818;28;20124;-77
2020/12/29 03:36:04;;;;;;;23.77;11.63;;;-6.60;88.90;;;;;;5015144;28;20427;-78
2020/12/29 03:38:30;;;;;;;19.83;12.65;;;-6.60;88.90;;;;;;5014266;28;20029;-78
2020/12/29 03:40:56;;;;;;;18.70;13.20;;;-6.60;88.90;;;;;;5014416;28;20030;-78
2020/12/29 03:43:22;;;;;;;21.60;11.32;;;-6.60;88.70;;;;;;5013270;28;20018;-78
2020/12/29 03:45:50;;;;;;;23.17;13.32;;;-6.50;88.60;;;;;;5000890;28;20378;-80
2020/12/29 03:48:17;;;;;;;;;;;-6.50;88.60;;;;;;5014816;28;20494;-78
2020/12/29 03:50:43;;;;;;;21.77;12.10;;;-6.60;88.50;;;;;;5009971;28;19938;-78
2020/12/29 03:53:10;;;;;;;22.63;12.65;;;-6.60;88.40;;;;;;5005873;28;20018;-78
2020/12/29 03:55:36;;;;;;;18.55;11.65;;;-6.60;88.50;;;;;;5015035;28;20030;-79
2020/12/29 03:58:04;;;;;;;18.52;12.00;;;-6.50;88.70;;;;;;5015643;28;20021;-78
2020/12/29 04:00:30;;;;;;;22.95;12.95;;;-6.50;88.70;;;;;;5012932;28;20080;-79
2020/12/29 04:02:56;;;;;;;22.67;15.18;;;-6.50;88.80;;;;;;5001781;28;20014;-80
2020/12/29 04:05:22;;;;;;;20.00;11.80;;;-6.40;88.90;;;;;;5002275;28;20026;-79
2020/12/29 04:07:50;;;;;;;14.13;9.95;;;-6.40;88.90;;;;;;5014331;28;20048;-80
2020/12/29 04:10:17;;;;;;;16.65;10.90;;;-6.40;88.90;;;;;;5017092;28;20131;-79
2020/12/29 04:12:43;;;;;;;21.20;12.55;;;-6.40;88.90;;;;;;5014828;28;20049;-79
2020/12/29 04:15:09;;;;;;;20.55;11.82;;;-6.30;88.80;;;;;;5014682;28;20437;-79
2020/12/29 04:17:39;;;;;;;21.50;11.18;;;-6.30;88.70;;;;;;5002214;28;20080;-77
2020/12/29 04:20:07;;;;;;;25.55;13.07;;;-6.30;88.90;;;;;;4993731;28;20050;-80
2020/12/29 04:22:34;;;;;;;27.48;14.48;;;-6.30;88.90;;;;;;4993718;28;20014;-76
2020/12/29 04:25:00;;;;;;;21.05;11.57;;;-6.30;88.80;;;;;;4995066;28;20356;-79
2020/12/29 04:27:26;;;;;;;21.73;12.30;;;-6.30;88.80;;;;;;4995150;28;20069;-78
2020/12/29 04:29:52;;;;;;;20.83;11.70;;;-6.20;88.70;;;;;;4992030;28;20018;-79
2020/12/29 04:32:19;;;;;;;20.13;13.20;;;-6.20;88.70;;;;;;4993696;28;20105;-79
2020/12/29 04:34:45;;;;;;;19.80;12.32;;;-6.20;88.70;;;;;;4993588;28;20022;-78
2020/12/29 04:37:11;;;;;;;21.02;11.85;;;-6.10;88.80;;;;;;4993726;28;20022;-79
2020/12/29 04:39:37;;;;;;;22.33;12.63;;;-6.20;88.70;;;;;;4993255;28;20427;-79
2020/12/29 04:42:12;;;;;;;24.15;12.25;;;-6.10;88.90;;;;;;4995815;28;20486;-80
2020/12/29 04:44:42;;;;;;;19.33;11.93;;;-6.10;88.90;;;;;;5012412;28;20055;-78
2020/12/29 04:47:09;;;;;;;19.13;11.93;;;-6.10;88.90;;;;;;5013222;28;20018;-79
2020/12/29 04:49:36;;;;;;;22.45;12.65;;;-6.00;89.00;;;;;;5006232;28;20076;-79
2020/12/29 04:52:04;;;;;;;16.75;10.50;;;-6.00;88.90;;;;;;5009441;28;20049;-79
2020/12/29 04:54:38;;;;;;;19.92;11.88;;;-6.00;88.90;;;;;;5003593;28;20030;-78
2020/12/29 04:57:06;;;;;;;22.20;12.95;;;-6.00;88.90;;;;;;4993136;28;20030;-78
2020/12/29 04:59:33;;;;;;;20.27;12.25;;;-5.90;88.90;;;;;;4993295;28;20108;-77
2020/12/29 05:02:00;;;;;;;23.20;12.55;;;-5.90;88.90;;;;;;4993095;28;20098;-79
2020/12/29 05:04:29;;;;;;;23.10;13.05;;;-5.90;88.90;;;;;;4993289;28;20034;-79
2020/12/29 05:06:59;;;;;;;18.40;12.13;;;-5.90;88.90;;;;;;4995946;28;20444;-80
2020/12/29 05:09:26;;;;;;;21.55;12.57;;;-5.90;88.90;;;;;;4998919;28;20030;-80
2020/12/29 05:11:52;;;;;;;17.52;11.40;;;-5.80;89.00;;;;;;4994302;28;20065;-78
2020/12/29 05:14:19;;;;;;;25.90;15.68;;;-5.80;89.00;;;;;;4992743;28;20072;-78
2020/12/29 05:16:45;;;;;;;13.82;10.05;;;-5.80;89.00;;;;;;4993284;28;20023;-79
2020/12/29 05:19:13;;;;;;;18.98;11.57;;;-5.80;89.10;;;;;;4991235;28;20046;-80
2020/12/29 05:21:41;;;;;;;21.90;12.80;;;-5.80;89.10;;;;;;4991773;28;20443;-79
2020/12/29 05:24:13;;;;;;;22.85;12.38;;;-5.80;89.20;;;;;;4991407;28;20033;-80
2020/12/29 05:26:40;;;;;;;18.77;12.30;;;-5.80;89.20;;;;;;4980617;28;20073;-80
2020/12/29 05:29:13;;;;;;;18.65;12.52;;;-5.70;89.20;;;;;;4993151;28;20057;-79
2020/12/29 05:31:44;;;;;;;19.90;12.60;;;-5.70;89.20;;;;;;4992359;28;20030;-80
2020/12/29 05:34:27;;;;;;;23.45;12.63;;;-5.70;89.20;;;;;;4992936;28;20027;-79
2020/12/29 05:36:54;;;;;;;26.52;14.15;;;-5.60;89.20;;;;;;4993516;28;20114;-78
2020/12/29 05:39:21;;;;;;;17.05;12.02;;;-5.60;89.10;;;;;;4993216;28;20137;-80
2020/12/29 05:41:49;;;;;;;20.75;14.07;;;-5.60;89.10;;;;;;4993251;28;20065;-79
2020/12/29 05:44:27;;;;;;;29.95;13.55;;;-5.60;89.10;;;;;;5004254;28;20435;-80
2020/12/29 05:46:54;;;;;;;23.70;14.15;;;-5.60;89.00;;;;;;4979558;28;20096;-79
2020/12/29 05:49:20;;;;;;;21.73;13.98;;;-5.50;89.00;;;;;;5002650;28;20390;-78
2020/12/29 05:51:48;;;;;;;24.98;14.13;;;-5.50;89.00;;;;;;4993476;28;20031;-80
2020/12/29 05:54:15;;;;;;;21.02;12.60;;;-5.50;88.80;;;;;;4992550;28;20126;-78
2020/12/29 05:56:41;;;;;;;23.88;13.20;;;-5.50;88.80;;;;;;4993160;28;20023;-79
2020/12/29 05:59:07;;;;;;;20.38;12.18;;;-5.50;88.80;;;;;;4993206;28;20030;-79
2020/12/29 06:01:40;;;;;;;24.20;13.57;;;-5.50;88.80;;;;;;4993951;28;20558;-80
2020/12/29 06:04:06;;;;;;;22.60;13.43;;;-5.50;88.70;;;;;;4989467;28;20023;-79
2020/12/29 06:06:35;;;;;;;18.85;12.30;;;-5.50;88.80;;;;;;4996222;28;20034;-78
2020/12/29 06:09:04;;;;;;;21.13;13.45;;;-5.50;88.70;;;;;;4997889;28;20014;-80
2020/12/29 06:11:59;;;;;;;30.67;13.18;;;-5.40;88.70;;;;;;4998959;28;20053;-79
2020/12/29 06:14:26;;;;;;;18.30;12.77;;;-5.40;88.60;;;;;;4989006;28;20434;-78
2020/12/29 06:16:54;;;;;;;24.17;13.95;;;-5.30;88.50;;;;;;4996266;28;20032;-79
2020/12/29 06:19:28;;;;;;;24.30;14.38;;;-5.30;88.40;;;;;;4995918;28;20117;-80
2020/12/29 06:22:10;;;;;;;25.23;15.68;;;-5.20;88.20;;;;;;4996186;28;20018;-78
2020/12/29 06:24:42;;;;;;;22.77;13.70;;;-5.20;88.20;;;;;;4996248;28;20073;-79
2020/12/29 06:27:10;;;;;;;18.95;11.98;;;-5.20;88.00;;;;;;4996203;28;20098;-79
2020/12/29 06:29:41;;;;;;;22.95;14.35;;;-5.20;88.00;;;;;;4995947;28;20102;-79
2020/12/29 06:32:11;;;;;;;21.35;11.95;;;-5.20;87.90;;;;;;4996458;28;20026;-80
2020/12/29 06:34:38;;;;;;;19.05;10.43;;;-5.20;87.80;;;;;;4995901;28;20057;-79
2020/12/29 06:37:42;;;;;;;19.25;11.80;;;-5.20;88.00;;;;;;4995767;28;20053;-80
2020/12/29 06:40:09;;;;;;;22.05;12.50;;;-5.20;87.80;;;;;;4995179;28;20041;-79
2020/12/29 06:42:42;;;;;;;16.92;10.88;;;-5.10;87.80;;;;;;5002752;28;20049;-80
2020/12/29 06:45:11;;;;;;;16.70;10.35;;;-5.10;87.60;;;;;;5013172;28;20036;-81
2020/12/29 06:47:39;;;;;;;18.77;13.15;;;-5.10;87.50;;;;;;5009127;28;20101;-80
2020/12/29 06:50:28;;;;;;;21.80;13.05;;;-5.10;87.50;;;;;;5000491;28;20037;-81
2020/12/29 06:53:02;;;;;;;20.20;12.52;;;-5.00;87.50;;;;;;4988668;28;20038;-80
2020/12/29 06:55:39;;;;;;;16.67;10.38;;;-5.00;87.20;;;;;;4995424;28;20027;-79
2020/12/29 06:58:06;;;;;;;21.67;12.50;;;-4.90;87.40;;;;;;4995360;28;20022;-80
2020/12/29 07:00:35;;;;;;;21.45;12.20;;;-4.90;87.30;;;;;;4995228;28;20030;-79
2020/12/29 07:03:01;;;;;;;18.30;12.50;;;-4.80;87.10;;;;;;4995643;28;20015;-79
2020/12/29 07:05:35;;;;;;;18.95;12.02;;;-4.80;86.90;;;;;;4995847;28;20502;-80
2020/12/29 07:08:05;;;;;;;20.65;11.90;;;-4.80;86.90;;;;;;4985574;28;20022;-79
2020/12/29 07:10:34;;;;;;;17.48;10.73;;;-4.70;86.70;;;;;;4995159;28;20467;-79
2020/12/29 07:13:23;;;;;;;22.17;13.18;;;-4.70;86.60;;;;;;4994978;28;20046;-79
2020/12/29 07:15:51;;;;;;;20.98;12.70;;;-4.60;86.40;;;;;;4995075;28;20036;-80
2020/12/29 07:18:22;;;;;;;19.35;14.05;;;-4.60;86.40;;;;;;4995216;28;20379;-79
2020/12/29 07:20:50;;;;;;;23.35;12.32;;;-4.60;86.60;;;;;;4995533;28;20472;-79
2020/12/29 07:23:18;;;;;;;19.13;13.10;;;-4.50;86.30;;;;;;4995138;28;20046;-79
2020/12/29 07:25:51;;;;;;;20.08;12.13;;;-4.40;86.10;;;;;;4994822;28;20105;-80
2020/12/29 07:28:25;;;;;;;17.75;11.85;;;-4.40;85.90;;;;;;4994630;28;20029;-80
2020/12/29 07:30:52;;;;;;;21.83;12.88;;;-4.40;85.70;;;;;;4995130;28;20026;-77
2020/12/29 07:33:27;;;;;;;18.77;12.07;;;-4.30;85.80;;;;;;4994856;28;20471;-80
2020/12/29 07:35:53;;;;;;;21.13;15.25;;;-4.30;85.50;;;;;;4994527;28;20031;-78
2020/12/29 07:38:24;;;;;;;17.23;9.23;;;-4.20;85.50;;;;;;4995166;28;20030;-80
2020/12/29 07:40:50;;;;;;;17.50;12.25;;;-4.20;85.10;;;;;;4994486;28;20073;-80
2020/12/29 07:43:17;;;;;;;17.52;12.48;;;-4.20;85.10;;;;;;5007171;28;20033;-81
2020/12/29 07:45:43;;;;;;;19.05;11.40;;;-4.20;85.20;;;;;;5009700;28;20032;-79
2020/12/29 07:48:09;;;;;;;17.55;12.20;;;-4.10;85.30;;;;;;5014176;28;20022;-79
2020/12/29 07:50:37;;;;;;;21.52;14.77;;;-4.10;84.70;;;;;;5013660;28;20414;-79
2020/12/29 07:53:08;;;;;;;19.67;10.65;;;-4.00;85.00;;;;;;5013841;28;20014;-79
2020/12/29 07:55:35;;;;;;;17.52;13.70;;;-4.00;84.60;;;;;;5013767;28;20567;-80
2020/12/29 07:58:04;;;;;;;19.65;13.25;;;-4.00;84.50;;;;;;5014328;28;20018;-79
2020/12/29 08:00:32;;;;;;;18.88;12.30;;;-4.00;84.70;;;;;;5013703;28;20486;-77
2020/12/29 08:02:57;;;;;;;21.13;13.02;;;-3.90;84.80;;;;;;5014339;28;20131;-78
2020/12/29 08:05:34;;;;;;;19.35;12.68;;;-3.80;85.20;;;;;;5014051;28;20038;-79
2020/12/29 08:08:07;;;;;;;20.60;11.88;;;-3.70;84.90;;;;;;5014992;28;20018;-79
2020/12/29 08:10:38;;;;;;;22.33;12.43;;;-3.70;83.70;;;;;;5000622;28;20023;-80
2020/12/29 08:13:12;;;;;;;18.10;12.27;;;-3.70;83.70;;;;;;4999769;28;20489;-80
2020/12/29 08:15:39;;;;;;;18.83;12.55;;;-3.60;83.70;;;;;;5013471;28;20022;-80
2020/12/29 08:18:16;;;;;;;14.98;10.65;;;-3.60;83.60;;;;;;5013534;28;20030;-80
2020/12/29 08:20:45;;;;;;;15.82;12.05;;;-3.60;83.40;;;;;;5013138;28;20076;-81
2020/12/29 08:23:12;;;;;;;19.27;11.65;;;-3.60;83.30;;;;;;5012195;28;20022;-81
2020/12/29 08:25:39;;;;;;;21.17;12.45;;;-3.50;84.00;;;;;;5012822;28;20082;-81
2020/12/29 08:28:07;;;;;;;18.52;13.45;;;-3.50;83.10;;;;;;5013141;28;20216;-79
2020/12/29 08:30:33;;;;;;;;;;;-3.50;82.90;;;;;;5013512;28;20025;-80
2020/12/29 08:33:03;;;;;;;20.43;11.97;;;-3.50;83.00;;;;;;5011947;28;20366;-79
2020/12/29 08:35:42;;;;;;;20.83;13.07;;;-3.50;82.60;;;;;;5013124;28;20360;-80
2020/12/29 08:38:30;;;;;;;18.90;12.77;;;-3.50;82.60;;;;;;5013064;28;20034;-81
2020/12/29 08:41:04;;;;;;;17.88;10.90;;;-3.50;82.80;;;;;;5012944;28;20034;-80
2020/12/29 08:43:33;;;;;;;22.35;11.75;;;-3.50;82.60;;;;;;5009442;28;20084;-80
2020/12/29 08:46:06;;;;;;;17.67;10.88;;;-3.50;82.70;;;;;;5012494;28;20022;-80
2020/12/29 08:48:32;;;;;;;22.20;12.95;;;-3.40;83.00;;;;;;5012601;28;20087;-80
2020/12/29 08:50:58;;;;;;;15.50;10.25;;;-3.30;82.90;;;;;;5012583;28;20490;-79
2020/12/29 08:53:26;;;;;;;17.20;12.63;;;-3.20;82.60;;;;;;5011541;28;20426;-80
2020/12/29 08:55:52;;;;;;;;;;;-3.00;82.50;;;;;;5013112;28;20032;-80
2020/12/29 08:58:27;;;;;;;14.75;9.10;;;-3.00;82.30;;;;;;5013395;28;19906;-79
2020/12/29 09:00:53;;;;;;;17.55;11.80;;;-2.90;81.60;;;;;;5011918;28;20034;-80
2020/12/29 09:03:23;;;;;;;13.32;9.93;;;-2.90;81.50;;;;;;5013860;28;20412;-82
2020/12/29 09:05:54;;;;;;;15.40;10.45;;;-2.90;81.50;;;;;;5012765;28;20055;-80
2020/12/29 09:08:30;;;;;;;19.30;12.93;;;-2.90;81.30;;;;;;5012844;28;20014;-80
2020/12/29 09:11:09;;;;;;;18.67;10.30;;;-3.00;81.30;;;;;;5012910;28;20037;-80
2020/12/29 09:13:35;;;;;;;18.73;10.52;;;-3.10;81.50;;;;;;5012750;28;20142;-81
2020/12/29 09:16:13;;;;;;;15.50;10.23;;;-3.10;81.60;;;;;;5010421;28;20121;-79
2020/12/29 09:18:42;;;;;;;16.50;10.77;;;-3.10;81.70;;;;;;5012849;28;20048;-80
2020/12/29 09:21:25;;;;;;;17.48;11.32;;;-3.10;81.80;;;;;;5012189;28;20022;-79
2020/12/29 09:23:58;;;;;;;17.55;11.02;;;-3.10;81.80;;;;;;5012576;28;20492;-80
2020/12/29 09:26:24;;;;;;;15.45;10.18;;;-3.10;81.60;;;;;;5012109;28;20033;-80
2020/12/29 09:28:54;;;;;;;14.38;9.60;;;-3.10;81.60;;;;;;5012391;28;20052;-81
2020/12/29 09:31:27;;;;;;;17.90;11.77;;;-3.10;82.00;;;;;;5012564;28;20398;-80
2020/12/29 09:33:54;;;;;;;18.40;12.05;;;-2.80;82.40;;;;;;5012342;28;20045;-79
2020/12/29 09:36:22;;;;;;;19.57;10.37;;;-2.50;81.80;;;;;;5014688;28;20025;-80
2020/12/29 09:38:49;;;;;;;17.27;10.52;;;-2.40;81.00;;;;;;5016272;28;20029;-79
2020/12/29 09:41:15;;;;;;;16.02;11.18;;;-2.30;80.50;;;;;;5016139;28;20030;-81
2020/12/29 09:43:43;;;;;;;18.50;12.30;;;-2.30;80.30;;;;;;5003376;28;20025;-82
2020/12/29 09:46:09;;;;;;;20.38;10.98;;;-2.30;80.20;;;;;;5016914;28;20022;-80
2020/12/29 09:48:35;;;;;;;15.80;10.52;;;-2.30;80.00;;;;;;5016239;28;20033;-80
2020/12/29 09:51:00;;;;;;;18.98;12.75;;;-2.40;80.40;;;;;;5016427;28;20045;-80
2020/12/29 09:53:26;;;;;;;17.67;11.15;;;-2.40;79.90;;;;;;5015975;28;20029;-80
2020/12/29 09:55:54;;;;;;;17.85;10.48;;;-2.40;79.80;;;;;;5015782;28;20018;-80
2020/12/29 09:58:20;;;;;;;;;;;-2.40;79.70;;;;;;5016426;28;20028;-80
2020/12/29 10:00:47;;;;;;;17.40;9.07;;;-2.50;79.80;;;;;;5016022;28;20003;-82
2020/12/29 10:03:14;;;;;;;16.77;10.85;;;-2.60;79.70;;;;;;5016278;28;20017;-80
2020/12/29 10:05:39;;;;;;;11.50;7.57;;;-2.70;80.20;;;;;;5015976;28;20452;-80
2020/12/29 10:08:05;;;;;;;15.80;11.05;;;-2.70;80.10;;;;;;5016328;28;20049;-80
2020/12/29 10:10:31;;;;;;;18.77;10.25;;;-2.70;81.00;;;;;;5016686;28;20028;-80
2020/12/29 10:12:57;;;;;;;14.98;9.68;;;-2.80;80.30;;;;;;5016868;28;20472;-80
2020/12/29 10:15:23;;;;;;;13.95;8.48;;;-2.80;80.50;;;;;;5015717;28;20122;-79
2020/12/29 10:17:49;;;;;;;16.83;9.32;;;-2.80;80.40;;;;;;5015652;28;20152;-81
2020/12/29 10:20:15;;;;;;;14.95;9.00;;;-2.80;80.70;;;;;;5015442;28;20520;-81
2020/12/29 10:22:41;;;;;;;14.90;10.57;;;-2.70;80.70;;;;;;5001712;28;20022;-81
2020/12/29 10:25:10;;;;;;;16.35;10.30;;;-2.70;80.40;;;;;;5015650;28;20014;-81
2020/12/29 10:27:37;;;;;;;14.77;9.88;;;-2.70;80.30;;;;;;5015543;28;20320;-79
2020/12/29 10:30:04;;;;;;;19.55;13.35;;;-2.70;80.50;;;;;;5008203;28;20500;-80
2020/12/29 10:32:29;;;;;;;11.18;9.18;;;-2.70;80.40;;;;;;5007824;28;20056;-79
2020/12/29 10:34:55;;;;;;;17.58;10.90;;;-2.70;80.30;;;;;;5015305;28;20021;-79
2020/12/29 10:37:21;;;;;;;17.17;10.30;;;-2.70;80.20;;;;;;5015194;28;20445;-81
2020/12/29 10:39:47;;;;;;;17.98;9.75;;;-2.70;80.30;;;;;;5015074;28;20056;-80
2020/12/29 10:42:13;;;;;;;13.38;7.82;;;-2.70;80.40;;;;;;5005372;28;20018;-79
2020/12/29 10:44:44;;;;;;;16.38;8.73;;;-2.60;80.30;;;;;;5002713;28;20026;-81
2020/12/29 10:47:10;;;;;;;12.98;8.48;;;-2.60;80.10;;;;;;5011963;28;20037;-79
2020/12/29 10:49:36;;;;;;;17.13;9.65;;;-2.60;79.90;;;;;;5015423;28;20379;-79
2020/12/29 10:52:02;;;;;;;14.88;8.52;;;-2.50;79.60;;;;;;5015340;28;20475;-80
2020/12/29 10:54:27;;;;;;;16.92;10.90;;;-2.50;79.60;;;;;;5009620;28;20026;-80
2020/12/29 10:56:53;;;;;;;11.32;8.05;;;-2.60;79.40;;;;;;5008994;28;20053;-81
2020/12/29 10:59:19;;;;;;;11.90;7.90;;;-2.60;79.60;;;;;;5015201;28;20076;-81
2020/12/29 11:01:45;;;;;;;14.43;8.75;;;-2.60;79.60;;;;;;5015280;28;20026;-81
2020/12/29 11:04:11;;;;;;;18.02;11.07;;;-2.60;79.60;;;;;;5014693;28;20040;-80
2020/12/29 11:06:36;;;;;;;12.50;7.28;;;-2.50;79.80;;;;;;5014804;28;20478;-81
2020/12/29 11:09:03;;;;;;;15.73;9.75;;;-2.50;79.40;;;;;;5014987;28;20079;-81
2020/12/29 11:11:29;;;;;;;14.77;9.10;;;-2.50;79.30;;;;;;5015238;28;20045;-79
2020/12/29 11:13:55;;;;;;;15.60;9.30;;;-2.50;79.30;;;;;;5013897;28;20053;-81
2020/12/29 11:16:23;;;;;;;18.20;12.93;;;-2.50;79.20;;;;;;5015302;28;20058;-81
2020/12/29 11:18:50;;;;;;;16.15;9.15;;;-2.40;79.20;;;;;;5014423;28;20501;-80
2020/12/29 11:21:18;;;;;;;14.68;8.65;;;-2.40;79.00;;;;;;5015579;28;20040;-80
2020/12/29 11:23:44;;;;;;;13.63;8.68;;;-2.40;79.10;;;;;;5017056;28;20120;-80
2020/12/29 11:26:13;;;;;;;14.68;7.85;;;-2.40;79.10;;;;;;5016616;28;20025;-80
2020/12/29 11:28:39;;;;;;;15.88;8.75;;;-2.40;78.50;;;;;;5019023;28;20051;-80
2020/12/29 11:31:05;;;;;;;18.77;8.93;;;-2.50;78.40;;;;;;5000519;28;20026;-80
2020/12/29 11:33:31;;;;;;;11.57;8.15;;;-2.50;78.50;;;;;;5014827;28;20183;-80
2020/12/29 11:35:57;;;;;;;13.25;7.40;;;-2.50;78.70;;;;;;5015006;28;20022;-80
2020/12/29 11:38:23;;;;;;;12.10;8.98;;;-2.50;78.80;;;;;;5014355;28;20044;-80
2020/12/29 11:40:50;;;;;;;17.75;9.55;;;-2.40;78.80;;;;;;5009690;28;20119;-81
2020/12/29 11:43:16;;;;;;;12.50;8.68;;;-2.40;78.90;;;;;;5011129;28;20049;-80
2020/12/29 11:45:43;;;;;;;13.10;8.60;;;-2.40;78.70;;;;;;5013436;28;20038;-80
2020/12/29 11:48:09;;;;;;;12.43;8.03;;;-2.40;78.30;;;;;;5014188;28;20454;-78
2020/12/29 11:50:34;;;;;;;13.88;7.53;;;-2.40;78.30;;;;;;5013860;28;20260;-79
2020/12/29 11:53:00;;;;;;;11.50;8.20;;;-2.40;78.30;;;;;;5014065;28;20123;-80
2020/12/29 11:55:26;;;;;;;11.10;7.43;;;-2.40;78.50;;;;;;5014014;28;20030;-80
2020/12/29 11:57:52;;;;;;;10.80;6.22;;;-2.40;78.00;;;;;;5014017;28;20018;-80
2020/12/29 12:00:18;;;;;;;8.68;5.75;;;-2.50;77.90;;;;;;5013086;28;20034;-79
2020/12/29 12:02:44;;;;;;;11.35;8.40;;;-2.60;78.10;;;;;;5013465;28;20025;-80
2020/12/29 12:05:11;;;;;;;11.27;6.97;;;-2.60;78.20;;;;;;5013944;28;20026;-79
2020/12/29 12:07:37;;;;;;;9.73;6.55;;;-2.60;78.20;;;;;;5013458;28;20526;-80
2020/12/29 12:10:06;;;;;;;14.93;10.98;;;-2.60;78.60;;;;;;5002877;28;20112;-80
2020/12/29 12:12:31;;;;;;;10.10;7.00;;;-2.50;78.70;;;;;;5009761;28;20018;-80
2020/12/29 12:14:57;;;;;;;11.63;7.43;;;-2.40;78.60;;;;;;5013689;28;20097;-81
2020/12/29 12:17:26;;;;;;;13.32;7.18;;;-2.40;78.20;;;;;;5014603;28;20480;-80
2020/12/29 12:19:52;;;;;;;14.10;6.85;;;-2.50;77.80;;;;;;5016357;28;20625;-79
2020/12/29 12:22:18;;;;;;;11.05;7.22;;;-2.50;77.90;;;;;;5014317;28;20064;-80
2020/12/29 12:24:44;;;;;;;7.70;6.10;;;-2.60;78.00;;;;;;5013491;28;20108;-80
2020/12/29 12:27:09;;;;;;;11.43;7.03;;;-2.60;78.00;;;;;;5013793;28;20033;-79
2020/12/29 12:29:35;;;;;;;15.10;7.90;;;-2.50;78.00;;;;;;5013729;28;20057;-81
2020/12/29 12:32:01;;;;;;;9.85;6.60;;;-2.50;77.80;;;;;;5013902;28;20088;-82
2020/12/29 12:34:27;;;;;;;12.25;6.88;;;-2.50;77.70;;;;;;5013192;28;20439;-79